Time;durP1;ratioP1;P1;durP2;ratioP2;P2;SDS_P1;SDS_P2;PMS_P1;PMS_P2;Temp;Humidity;BMP_temperature;BMP_pressure;BME280_temperature;BME280_humidity;BME280_pressure;Samples;Min_cycle;Max_cycle;Signal;HPM_P1;HPM_P2
2021/09/24 00:00:49;;;;;;;7.83;2.40;;;;;;;;;;5008303;28;20573;-76
2021/09/24 00:03:15;;;;;;;7.43;2.40;;;;;;;;;;5008286;28;20229;-76
2021/09/24 00:05:42;;;;;;;9.87;2.27;;;;;;;;;;5008482;28;20240;-75
2021/09/24 00:08:08;;;;;;;8.47;2.60;;;;;;;;;;5007703;28;20262;-76
2021/09/24 00:10:35;;;;;;;5.40;1.80;;;;;;;;;;5007101;28;20213;-76
2021/09/24 00:13:01;;;;;;;13.20;3.13;;;;;;;;;;5007530;28;20690;-76
2021/09/24 00:15:29;;;;;;;9.53;2.30;;;;;;;;;;5008323;28;20662;-76
2021/09/24 00:17:56;;;;;;;8.70;2.37;;;;;;;;;;5007593;28;20213;-76
2021/09/24 00:20:22;;;;;;;12.17;2.43;;;;;;;;;;5007834;28;20219;-76
2021/09/24 00:22:48;;;;;;;12.90;2.03;;;;;;;;;;5007413;28;20220;-76
2021/09/24 00:25:15;;;;;;;8.30;2.47;;;;;;;;;;5008037;28;20343;-76
2021/09/24 00:27:41;;;;;;;9.30;2.83;;;;;;;;;;5007985;28;20793;-76
2021/09/24 00:30:10;;;;;;;9.27;2.77;;;;;;;;;;5006853;28;20268;-76
2021/09/24 00:32:38;;;;;;;10.03;3.00;;;;;;;;;;5007917;28;20219;-76
2021/09/24 00:35:06;;;;;;;7.60;2.63;;;;;;;;;;5007337;28;20217;-76
2021/09/24 00:37:33;;;;;;;11.63;2.67;;;;;;;;;;5007221;28;20246;-76
2021/09/24 00:39:59;;;;;;;11.73;2.83;;;;;;;;;;5007025;28;20226;-76
2021/09/24 00:42:26;;;;;;;11.27;2.53;;;;;;;;;;5007233;28;20308;-76
2021/09/24 00:44:53;;;;;;;11.47;2.83;;;;;;;;;;5006920;28;20218;-76
2021/09/24 00:47:22;;;;;;;8.47;2.37;;;;;;;;;;5006918;28;20279;-76
2021/09/24 00:49:50;;;;;;;10.30;2.77;;;;;;;;;;5008027;28;20269;-76
2021/09/24 00:52:18;;;;;;;7.60;2.90;;;;;;;;;;5007481;28;20224;-76
2021/09/24 00:54:47;;;;;;;5.70;2.53;;;;;;;;;;5007262;28;20221;-76
2021/09/24 00:57:13;;;;;;;8.50;2.70;;;;;;;;;;5007309;28;20366;-76
2021/09/24 00:59:40;;;;;;;12.07;2.47;;;;;;;;;;5007002;28;20213;-76
2021/09/24 01:02:06;;;;;;;8.13;2.50;;;;;;;;;;5007475;28;20229;-76
2021/09/24 01:04:33;;;;;;;11.40;2.43;;;;;;;;;;5007694;28;20268;-76
2021/09/24 01:07:01;;;;;;;10.33;2.90;;;;;;;;;;5007690;28;20240;-76
2021/09/24 01:09:28;;;;;;;6.27;1.97;;;;;;;;;;5007492;28;20736;-76
2021/09/24 01:11:55;;;;;;;7.93;2.70;;;;;;;;;;5007313;28;20225;-76
2021/09/24 01:14:22;;;;;;;8.60;2.43;;;;;;;;;;5007016;28;20233;-76
2021/09/24 01:16:48;;;;;;;8.27;2.50;;;;;;;;;;5006752;28;20262;-76
2021/09/24 01:19:14;;;;;;;10.00;2.43;;;;;;;;;;5006775;28;20212;-76
2021/09/24 01:21:43;;;;;;;6.27;2.20;;;;;;;;;;5007093;28;20226;-76
2021/09/24 01:24:09;;;;;;;9.43;2.73;;;;;;;;;;5006593;28;20309;-76
2021/09/24 01:26:36;;;;;;;13.20;2.77;;;;;;;;;;5007372;28;20245;-76
2021/09/24 01:29:03;;;;;;;12.60;2.40;;;;;;;;;;5007096;28;20276;-76
2021/09/24 01:31:30;;;;;;;7.53;2.57;;;;;;;;;;5006760;28;20274;-76
2021/09/24 01:33:56;;;;;;;9.33;2.80;;;;;;;;;;5006692;28;20259;-76
2021/09/24 01:36:23;;;;;;;10.83;2.53;;;;;;;;;;5006759;28;21084;-76
2021/09/24 01:38:50;;;;;;;12.67;2.63;;;;;;;;;;5007314;28;20214;-76
2021/09/24 01:41:17;;;;;;;7.30;2.17;;;;;;;;;;5006599;28;20372;-76
2021/09/24 01:43:43;;;;;;;11.40;2.90;;;;;;;;;;5007285;28;20230;-76
2021/09/24 01:46:10;;;;;;;6.47;2.13;;;;;;;;;;5006514;28;20245;-76
2021/09/24 01:48:37;;;;;;;9.03;2.37;;;;;;;;;;5007273;28;20222;-76
2021/09/24 01:51:03;;;;;;;8.50;2.13;;;;;;;;;;5007372;28;20216;-76
2021/09/24 01:53:29;;;;;;;9.57;2.60;;;;;;;;;;5005820;28;20209;-76
2021/09/24 01:55:57;;;;;;;12.17;2.47;;;;;;;;;;5006441;28;20239;-76
2021/09/24 01:58:24;;;;;;;13.10;3.50;;;;;;;;;;5006906;28;20707;-76
2021/09/24 02:00:50;;;;;;;11.30;3.03;;;;;;;;;;5006647;28;20220;-76
2021/09/24 02:03:16;;;;;;;9.13;2.33;;;;;;;;;;5006496;28;21142;-76
2021/09/24 02:05:43;;;;;;;7.40;2.40;;;;;;;;;;5006826;28;20209;-76
2021/09/24 02:08:09;;;;;;;7.20;2.77;;;;;;;;;;5006161;28;20219;-76
2021/09/24 02:10:36;;;;;;;10.73;3.20;;;;;;;;;;5007513;28;20549;-76
2021/09/24 02:13:04;;;;;;;7.10;2.47;;;;;;;;;;5010498;28;20894;-76
2021/09/24 02:15:30;;;;;;;16.77;3.30;;;;;;;;;;5010181;28;20225;-76
2021/09/24 02:17:57;;;;;;;9.77;3.17;;;;;;;;;;5009952;28;20216;-76
2021/09/24 02:20:23;;;;;;;12.50;3.40;;;;;;;;;;5009914;28;20217;-76
2021/09/24 02:22:49;;;;;;;8.43;3.07;;;;;;;;;;5010628;28;20612;-76
2021/09/24 02:25:16;;;;;;;10.13;3.30;;;;;;;;;;5010539;28;20348;-76
2021/09/24 02:27:42;;;;;;;12.07;3.50;;;;;;;;;;5010136;28;20243;-77
2021/09/24 02:30:12;;;;;;;14.67;3.73;;;;;;;;;;5009520;28;20255;-76
2021/09/24 02:32:38;;;;;;;10.87;3.60;;;;;;;;;;5010324;28;20244;-76
2021/09/24 02:35:06;;;;;;;9.97;3.57;;;;;;;;;;5009983;28;20218;-76
2021/09/24 02:37:32;;;;;;;9.80;3.60;;;;;;;;;;5009839;28;21080;-76
2021/09/24 02:39:59;;;;;;;7.20;3.33;;;;;;;;;;5009728;28;20213;-76
2021/09/24 02:42:25;;;;;;;10.77;3.47;;;;;;;;;;5009191;28;20680;-76
2021/09/24 02:44:52;;;;;;;10.33;3.67;;;;;;;;;;5009266;28;20209;-76
2021/09/24 02:47:20;;;;;;;12.63;4.47;;;;;;;;;;5008243;28;20242;-76
2021/09/24 02:49:48;;;;;;;9.00;3.33;;;;;;;;;;5007704;28;20217;-76
2021/09/24 02:52:15;;;;;;;12.47;3.93;;;;;;;;;;5009525;28;20294;-76
2021/09/24 02:54:41;;;;;;;15.00;3.80;;;;;;;;;;5009741;28;20213;-76
2021/09/24 02:57:08;;;;;;;15.97;3.73;;;;;;;;;;5009483;28;20759;-76
2021/09/24 02:59:34;;;;;;;11.50;3.73;;;;;;;;;;5009555;28;20220;-76
2021/09/24 03:02:01;;;;;;;10.33;3.20;;;;;;;;;;5008763;28;20235;-76
2021/09/24 03:04:28;;;;;;;10.17;3.50;;;;;;;;;;5009530;28;20923;-76
2021/09/24 03:06:55;;;;;;;7.17;3.50;;;;;;;;;;5007963;28;20380;-76
2021/09/24 03:09:21;;;;;;;10.10;3.30;;;;;;;;;;5009351;28;20204;-76
2021/09/24 03:11:48;;;;;;;18.57;3.67;;;;;;;;;;5009631;28;20232;-76
2021/09/24 03:14:15;;;;;;;7.60;3.17;;;;;;;;;;5009070;28;20225;-76
2021/09/24 03:16:42;;;;;;;12.37;3.37;;;;;;;;;;5008700;28;20227;-76
2021/09/24 03:19:09;;;;;;;8.37;3.43;;;;;;;;;;5009368;28;20205;-76
2021/09/24 03:21:37;;;;;;;8.40;3.30;;;;;;;;;;5009322;28;20208;-76
2021/09/24 03:24:04;;;;;;;12.07;4.00;;;;;;;;;;5008694;28;20634;-76
2021/09/24 03:26:31;;;;;;;10.07;3.73;;;;;;;;;;5009050;28;20240;-76
2021/09/24 03:28:58;;;;;;;8.57;4.00;;;;;;;;;;5008673;28;20723;-76
2021/09/24 03:31:24;;;;;;;7.80;3.33;;;;;;;;;;5008670;28;20633;-76
2021/09/24 03:33:51;;;;;;;8.80;3.27;;;;;;;;;;5008964;28;20219;-76
2021/09/24 03:36:17;;;;;;;13.97;3.53;;;;;;;;;;5008563;28;20248;-76
2021/09/24 03:38:45;;;;;;;10.37;3.73;;;;;;;;;;5008977;28;20299;-76
2021/09/24 03:41:11;;;;;;;10.67;4.20;;;;;;;;;;5008064;28;20309;-76
2021/09/24 03:43:39;;;;;;;11.67;4.30;;;;;;;;;;5009169;28;20230;-76
2021/09/24 03:46:05;;;;;;;10.70;3.40;;;;;;;;;;5008573;28;20226;-76
2021/09/24 03:48:31;;;;;;;9.27;3.40;;;;;;;;;;5008552;28;20688;-76
2021/09/24 03:50:58;;;;;;;9.07;3.17;;;;;;;;;;5008971;28;20216;-76
2021/09/24 03:53:25;;;;;;;11.50;3.33;;;;;;;;;;5008523;28;20259;-76
2021/09/24 03:55:53;;;;;;;8.13;2.97;;;;;;;;;;5008677;28;20289;-76
2021/09/24 03:58:20;;;;;;;8.90;3.33;;;;;;;;;;5008160;28;20722;-76
2021/09/24 04:00:46;;;;;;;12.33;3.97;;;;;;;;;;5008831;28;20223;-76
2021/09/24 04:03:12;;;;;;;9.87;3.33;;;;;;;;;;5008461;28;20262;-76
2021/09/24 04:05:39;;;;;;;9.27;3.17;;;;;;;;;;5008627;28;20691;-76
2021/09/24 04:08:05;;;;;;;12.13;3.73;;;;;;;;;;5007032;28;20303;-76
2021/09/24 04:10:32;;;;;;;10.80;3.47;;;;;;;;;;5008688;28;20672;-76
2021/09/24 04:13:00;;;;;;;8.73;3.27;;;;;;;;;;5008762;28;20601;-76
2021/09/24 04:15:26;;;;;;;8.67;3.23;;;;;;;;;;5008601;28;20216;-76
2021/09/24 04:17:53;;;;;;;9.13;3.13;;;;;;;;;;5007626;28;20209;-76
2021/09/24 04:20:19;;;;;;;9.20;3.07;;;;;;;;;;5008294;28;20212;-76
2021/09/24 04:22:46;;;;;;;11.43;3.80;;;;;;;;;;5007620;28;20226;-76
2021/09/24 04:25:12;;;;;;;12.20;3.90;;;;;;;;;;5008135;28;20216;-76
2021/09/24 04:27:39;;;;;;;8.60;3.37;;;;;;;;;;5007877;28;20287;-76
2021/09/24 04:30:10;;;;;;;6.57;3.47;;;;;;;;;;5007285;28;20227;-76
2021/09/24 04:32:36;;;;;;;8.43;3.20;;;;;;;;;;5007344;28;20209;-74
2021/09/24 04:35:04;;;;;;;9.70;3.37;;;;;;;;;;5005852;28;20240;-74
2021/09/24 04:37:30;;;;;;;7.80;3.50;;;;;;;;;;5005470;28;20235;-74
2021/09/24 04:39:56;;;;;;;9.77;3.67;;;;;;;;;;5006489;28;20212;-74
2021/09/24 04:42:23;;;;;;;10.97;3.23;;;;;;;;;;5007339;28;20297;-74
2021/09/24 04:44:49;;;;;;;12.33;3.73;;;;;;;;;;5007319;28;20220;-74
2021/09/24 04:47:18;;;;;;;7.53;3.60;;;;;;;;;;5005747;28;20232;-74
2021/09/24 04:49:44;;;;;;;13.47;4.07;;;;;;;;;;5006351;28;20214;-74
2021/09/24 04:52:10;;;;;;;11.33;3.63;;;;;;;;;;5006315;28;20823;-74
2021/09/24 04:54:37;;;;;;;6.37;3.30;;;;;;;;;;5006322;28;20239;-74
2021/09/24 04:57:04;;;;;;;10.53;4.00;;;;;;;;;;5006610;28;20266;-74
2021/09/24 04:59:30;;;;;;;8.00;3.43;;;;;;;;;;5006296;28;20216;-74
2021/09/24 05:01:56;;;;;;;10.10;4.10;;;;;;;;;;5007122;28;20223;-74
2021/09/24 05:04:24;;;;;;;10.63;3.93;;;;;;;;;;5007515;28;20211;-74
2021/09/24 05:06:50;;;;;;;8.27;3.60;;;;;;;;;;5006303;28;20276;-74
2021/09/24 05:09:17;;;;;;;10.23;4.57;;;;;;;;;;5006682;28;20279;-74
2021/09/24 05:11:43;;;;;;;9.83;3.50;;;;;;;;;;5007339;28;20582;-73
2021/09/24 05:14:10;;;;;;;6.40;3.60;;;;;;;;;;5007189;28;20297;-74
2021/09/24 05:16:36;;;;;;;7.90;3.80;;;;;;;;;;5006255;28;20263;-74
2021/09/24 05:19:02;;;;;;;11.73;4.10;;;;;;;;;;5006948;28;20271;-74
2021/09/24 05:21:30;;;;;;;7.63;3.70;;;;;;;;;;5007029;28;20224;-73
2021/09/24 05:23:57;;;;;;;6.60;3.27;;;;;;;;;;5006627;28;20239;-74
2021/09/24 05:26:23;;;;;;;13.63;4.43;;;;;;;;;;5006039;28;20232;-74
2021/09/24 05:28:50;;;;;;;7.57;3.50;;;;;;;;;;5005864;28;20239;-75
2021/09/24 05:31:16;;;;;;;21.50;5.93;;;;;;;;;;5006134;28;20236;-74
2021/09/24 05:33:43;;;;;;;12.23;4.30;;;;;;;;;;5005927;28;20220;-74
2021/09/24 05:36:11;;;;;;;9.03;4.50;;;;;;;;;;5004532;28;20215;-74
2021/09/24 05:38:39;;;;;;;11.07;4.80;;;;;;;;;;5006366;28;20809;-74
2021/09/24 05:41:07;;;;;;;11.07;4.10;;;;;;;;;;5005204;28;20691;-74
2021/09/24 05:43:33;;;;;;;11.77;4.13;;;;;;;;;;5004643;28;20270;-74
2021/09/24 05:45:59;;;;;;;10.63;4.40;;;;;;;;;;5006896;28;20838;-74
2021/09/24 05:48:27;;;;;;;10.07;4.70;;;;;;;;;;5009595;28;20239;-74
2021/09/24 05:50:53;;;;;;;11.33;5.03;;;;;;;;;;5010254;28;20334;-74
2021/09/24 05:53:20;;;;;;;9.23;4.60;;;;;;;;;;5009611;28;20264;-74
2021/09/24 05:55:47;;;;;;;9.13;4.17;;;;;;;;;;5009130;28;20699;-74
2021/09/24 05:58:14;;;;;;;17.30;4.43;;;;;;;;;;5009789;28;20663;-74
2021/09/24 06:00:40;;;;;;;8.90;3.87;;;;;;;;;;5009330;28;20228;-74
2021/09/24 06:03:07;;;;;;;10.17;4.90;;;;;;;;;;5009372;28;20201;-74
2021/09/24 06:05:33;;;;;;;7.90;4.90;;;;;;;;;;5009633;28;20219;-74
2021/09/24 06:08:00;;;;;;;11.43;4.73;;;;;;;;;;5008522;28;20236;-74
2021/09/24 06:10:26;;;;;;;11.23;5.43;;;;;;;;;;5008296;28;20207;-75
2021/09/24 06:12:54;;;;;;;11.80;5.50;;;;;;;;;;5008667;28;20759;-75
2021/09/24 06:15:23;;;;;;;13.90;5.80;;;;;;;;;;5007897;28;20218;-74
2021/09/24 06:17:50;;;;;;;15.37;6.20;;;;;;;;;;5008529;28;20241;-75
2021/09/24 06:20:17;;;;;;;11.77;6.33;;;;;;;;;;5007645;28;20223;-74
2021/09/24 06:22:44;;;;;;;12.73;6.67;;;;;;;;;;5008732;28;20212;-75
2021/09/24 06:25:12;;;;;;;12.83;7.47;;;;;;;;;;5007160;28;20264;-74
2021/09/24 06:27:39;;;;;;;13.33;8.23;;;;;;;;;;5008139;28;21131;-74
2021/09/24 06:30:10;;;;;;;11.13;9.03;;;;;;;;;;5007944;28;20272;-74
2021/09/24 06:32:36;;;;;;;13.10;8.47;;;;;;;;;;5007827;28;20263;-74
2021/09/24 06:35:04;;;;;;;12.90;8.63;;;;;;;;;;5007856;28;20289;-74
2021/09/24 06:37:31;;;;;;;14.77;9.97;;;;;;;;;;5007399;28;20242;-74
2021/09/24 06:39:57;;;;;;;13.00;9.63;;;;;;;;;;5007318;28;20305;-74
2021/09/24 06:42:24;;;;;;;16.17;10.70;;;;;;;;;;5007328;28;20232;-74
2021/09/24 06:44:51;;;;;;;14.50;9.63;;;;;;;;;;5007836;28;20672;-74
2021/09/24 06:47:19;;;;;;;14.33;10.93;;;;;;;;;;5007471;28;20583;-74
2021/09/24 07:28:13;;;;;;;21.60;14.77;;;;;;;;;;5006989;27;20590;-74
2021/09/24 07:30:39;;;;;;;16.60;14.60;;;;;;;;;;5006438;28;20218;-74
2021/09/24 07:33:07;;;;;;;18.80;13.63;;;;;;;;;;5008392;28;20227;-74
2021/09/24 07:35:33;;;;;;;16.33;13.40;;;;;;;;;;5007759;28;20304;-74
2021/09/24 07:38:00;;;;;;;20.27;15.20;;;;;;;;;;5008123;28;21129;-74
2021/09/24 07:40:27;;;;;;;18.63;15.77;;;;;;;;;;5007670;28;20218;-74
2021/09/24 07:42:54;;;;;;;18.80;15.20;;;;;;;;;;5005820;28;20738;-74
2021/09/24 07:45:23;;;;;;;19.57;14.93;;;;;;;;;;5006588;28;20218;-74
2021/09/24 07:47:52;;;;;;;22.97;16.77;;;;;;;;;;5006697;28;20227;-74
2021/09/24 07:50:19;;;;;;;25.97;18.20;;;;;;;;;;5005711;28;20215;-74
2021/09/24 07:53:47;;;;;;;25.03;18.80;;;;;;;;;;4245539;27;1871746;-73
2021/09/24 07:56:14;;;;;;;23.57;19.17;;;;;;;;;;5094850;28;20205;-73
2021/09/24 07:58:41;;;;;;;27.20;21.67;;;;;;;;;;5096769;28;20300;-73
2021/09/24 08:01:09;;;;;;;27.37;21.00;;;;;;;;;;5093763;28;20226;-73
2021/09/24 08:03:36;;;;;;;30.23;20.70;;;;;;;;;;5095321;28;20220;-73
2021/09/24 08:06:03;;;;;;;28.60;22.27;;;;;;;;;;5095768;28;20224;-75
2021/09/24 08:08:31;;;;;;;33.87;23.13;;;;;;;;;;5094519;28;20284;-75
2021/09/24 08:10:59;;;;;;;32.33;25.50;;;;;;;;;;5095806;28;20313;-75
2021/09/24 08:13:26;;;;;;;32.80;25.20;;;;;;;;;;5096406;28;20235;-75
2021/09/24 08:15:54;;;;;;;52.17;28.80;;;;;;;;;;5095450;28;20210;-75
2021/09/24 08:18:21;;;;;;;44.17;28.43;;;;;;;;;;5085078;28;20690;-75
2021/09/24 08:20:48;;;;;;;36.90;29.03;;;;;;;;;;5083808;28;20218;-75
2021/09/24 08:23:15;;;;;;;44.70;29.57;;;;;;;;;;5083166;28;20277;-75
2021/09/24 08:25:42;;;;;;;44.70;30.63;;;;;;;;;;5082807;28;20267;-75
2021/09/24 08:28:09;;;;;;;48.47;31.67;;;;;;;;;;5082084;28;20654;-75
2021/09/24 08:30:36;;;;;;;56.43;31.97;;;;;;;;;;5083059;28;20274;-75
2021/09/24 08:33:03;;;;;;;41.63;29.87;;;;;;;;;;5082334;28;20235;-75
2021/09/24 08:35:31;;;;;;;48.33;32.37;;;;;;;;;;5083194;28;20283;-75
2021/09/24 08:37:58;;;;;;;46.53;31.77;;;;;;;;;;5083529;28;20227;-75
2021/09/24 08:40:27;;;;;;;45.00;32.13;;;;;;;;;;5082655;28;20224;-75
2021/09/24 08:42:54;;;;;;;47.07;34.87;;;;;;;;;;5082722;28;20212;-75
2021/09/24 08:45:26;;;;;;;54.77;32.40;;;;;;;;;;5082930;28;21290;-73
2021/09/24 08:47:54;;;;;;;47.63;29.93;;;;;;;;;;5083111;28;20228;-73
2021/09/24 08:50:20;;;;;;;45.53;30.30;;;;;;;;;;5082750;28;20277;-73
2021/09/24 08:52:47;;;;;;;45.20;31.77;;;;;;;;;;5082791;28;20240;-73
2021/09/24 08:55:14;;;;;;;47.77;31.40;;;;;;;;;;5082748;28;20218;-73
2021/09/24 08:57:42;;;;;;;50.27;30.87;;;;;;;;;;5082005;28;20217;-73
2021/09/24 09:00:11;;;;;;;39.57;28.17;;;;;;;;;;5082321;28;20265;-73
2021/09/24 09:02:57;;;;;;;46.97;29.23;;;;;;;;;;5082242;28;20616;-73
2021/09/24 09:05:24;;;;;;;39.73;27.50;;;;;;;;;;5068243;28;20205;-73
2021/09/24 09:07:51;;;;;;;38.23;28.07;;;;;;;;;;5069056;28;20224;-75
2021/09/24 09:10:18;;;;;;;37.03;26.03;;;;;;;;;;5068079;28;20221;-73
2021/09/24 09:12:45;;;;;;;33.30;24.57;;;;;;;;;;5069137;28;20230;-73
2021/09/24 09:15:14;;;;;;;33.10;25.63;;;;;;;;;;5068420;28;20266;-75
2021/09/24 09:17:42;;;;;;;38.87;25.83;;;;;;;;;;5068749;28;20699;-73
2021/09/24 09:20:17;;;;;;;33.20;24.13;;;;;;;;;;5068668;28;20256;-73
2021/09/24 09:22:46;;;;;;;36.20;22.47;;;;;;;;;;5068643;28;20200;-74
2021/09/24 09:25:22;;;;;;;36.50;23.47;;;;;;;;;;5068825;28;20535;-73
2021/09/24 09:27:50;;;;;;;36.70;26.67;;;;;;;;;;5068591;28;20676;-73
2021/09/24 09:30:17;;;;;;;32.40;21.83;;;;;;;;;;5068621;28;20202;-73
2021/09/24 09:32:45;;;;;;;28.57;16.73;;;;;;;;;;5068401;28;20355;-73
2021/09/24 09:35:14;;;;;;;28.17;17.70;;;;;;;;;;5068322;28;20210;-73
2021/09/24 09:37:40;;;;;;;27.10;17.00;;;;;;;;;;5068869;28;20279;-73
2021/09/24 09:40:10;;;;;;;25.83;16.57;;;;;;;;;;5068679;28;20581;-73
2021/09/24 09:42:39;;;;;;;21.70;16.10;;;;;;;;;;5068252;28;20276;-74
2021/09/24 09:45:08;;;;;;;24.63;16.10;;;;;;;;;;5068313;28;20243;-73
2021/09/24 09:47:37;;;;;;;17.53;12.27;;;;;;;;;;5065140;28;20224;-72
2021/09/24 09:50:09;;;;;;;25.13;13.67;;;;;;;;;;5067988;28;20262;-73
2021/09/24 09:52:54;;;;;;;19.23;12.47;;;;;;;;;;5067995;28;20262;-72
2021/09/24 09:55:22;;;;;;;17.67;11.60;;;;;;;;;;5048062;28;20221;-73
2021/09/24 09:57:50;;;;;;;17.67;11.40;;;;;;;;;;5047860;28;20219;-73
2021/09/24 10:00:18;;;;;;;12.33;9.43;;;;;;;;;;5048428;28;20217;-73
2021/09/24 10:02:47;;;;;;;16.13;9.43;;;;;;;;;;5047597;28;20234;-72
2021/09/24 10:05:31;;;;;;;11.37;7.43;;;;;;;;;;5047958;28;20225;-73
2021/09/24 10:08:01;;;;;;;11.47;7.63;;;;;;;;;;5048148;28;20674;-73
2021/09/24 10:10:28;;;;;;;15.00;8.23;;;;;;;;;;5047621;28;20288;-73
2021/09/24 10:13:05;;;;;;;12.57;7.07;;;;;;;;;;5047709;28;20288;-72
2021/09/24 10:15:32;;;;;;;10.20;6.63;;;;;;;;;;5046430;28;20245;-76
2021/09/24 10:17:58;;;;;;;13.23;6.63;;;;;;;;;;5047892;28;20239;-73
2021/09/24 10:20:25;;;;;;;14.73;6.57;;;;;;;;;;5047841;28;20219;-73
2021/09/24 10:22:51;;;;;;;9.90;5.47;;;;;;;;;;5047525;28;20225;-73
2021/09/24 10:25:23;;;;;;;10.57;5.83;;;;;;;;;;5047719;28;20292;-73
2021/09/24 10:27:50;;;;;;;9.83;5.90;;;;;;;;;;5047324;28;20218;-75
2021/09/24 10:30:25;;;;;;;9.00;5.83;;;;;;;;;;5047765;28;20268;-76
2021/09/24 10:32:56;;;;;;;11.87;6.87;;;;;;;;;;5047425;28;20294;-76
2021/09/24 10:35:23;;;;;;;16.70;6.60;;;;;;;;;;5047781;28;20637;-76
2021/09/24 10:38:06;;;;;;;7.07;4.80;;;;;;;;;;5047366;28;20226;-75
2021/09/24 10:40:34;;;;;;;7.10;4.57;;;;;;;;;;5047355;28;20213;-73
2021/09/24 10:43:01;;;;;;;9.37;4.50;;;;;;;;;;5047101;28;20734;-73
2021/09/24 10:45:35;;;;;;;7.30;4.27;;;;;;;;;;5046847;28;20319;-73
2021/09/24 10:48:15;;;;;;;18.40;5.67;;;;;;;;;;5046698;28;20234;-73
2021/09/24 10:51:03;;;;;;;7.67;5.43;;;;;;;;;;5047341;28;20218;-73
2021/09/24 10:53:42;;;;;;;10.53;4.90;;;;;;;;;;5052868;28;20243;-73
2021/09/24 10:56:28;;;;;;;8.53;6.20;;;;;;;;;;5066724;28;20213;-73
2021/09/24 10:58:56;;;;;;;10.70;6.27;;;;;;;;;;5066293;28;20212;-73
2021/09/24 11:01:34;;;;;;;13.20;5.90;;;;;;;;;;5066576;28;20217;-74
2021/09/24 11:04:10;;;;;;;7.20;5.97;;;;;;;;;;5066694;28;20225;-73
2021/09/24 11:06:39;;;;;;;8.77;6.80;;;;;;;;;;5066964;28;20292;-73
2021/09/24 11:09:07;;;;;;;10.20;7.53;;;;;;;;;;5066505;28;20209;-73
2021/09/24 11:11:36;;;;;;;14.60;6.93;;;;;;;;;;5066127;28;20702;-73
2021/09/24 11:14:22;;;;;;;12.23;6.90;;;;;;;;;;5066453;28;20240;-73
2021/09/24 11:16:48;;;;;;;28.03;8.50;;;;;;;;;;5066512;28;20237;-73
2021/09/24 11:19:43;;;;;;;26.80;9.10;;;;;;;;;;5067265;28;20258;-75
2021/09/24 11:22:16;;;;;;;13.30;7.77;;;;;;;;;;5048785;28;20260;-74
2021/09/24 11:24:46;;;;;;;12.03;7.83;;;;;;;;;;5066694;28;20662;-73
2021/09/24 11:27:16;;;;;;;15.00;6.70;;;;;;;;;;5066243;28;20666;-73
2021/09/24 11:30:04;;;;;;;15.90;6.63;;;;;;;;;;5065889;28;20210;-73
2021/09/24 11:32:33;;;;;;;9.07;6.03;;;;;;;;;;5065845;28;20329;-73
2021/09/24 11:35:00;;;;;;;12.83;7.20;;;;;;;;;;5066347;28;20552;-73
2021/09/24 11:37:28;;;;;;;19.67;7.83;;;;;;;;;;5066008;28;20217;-73
2021/09/24 11:40:00;;;;;;;9.73;6.93;;;;;;;;;;5066267;28;20295;-75
2021/09/24 11:42:29;;;;;;;14.03;7.50;;;;;;;;;;5066197;28;20217;-72
2021/09/24 11:44:57;;;;;;;10.43;7.10;;;;;;;;;;5066076;28;20224;-73
2021/09/24 11:47:25;;;;;;;8.33;6.63;;;;;;;;;;5065918;28;20229;-75
2021/09/24 11:49:56;;;;;;;12.53;6.70;;;;;;;;;;5066797;28;20224;-75
2021/09/24 11:52:32;;;;;;;12.87;7.97;;;;;;;;;;5066070;28;20683;-73
2021/09/24 11:55:09;;;;;;;13.97;7.07;;;;;;;;;;5065859;28;20237;-73
2021/09/24 11:57:36;;;;;;;11.13;6.73;;;;;;;;;;5065845;28;20653;-73
2021/09/24 12:00:03;;;;;;;13.93;8.40;;;;;;;;;;5066101;28;20217;-73
2021/09/24 12:02:30;;;;;;;21.10;8.03;;;;;;;;;;5065729;28;20235;-73
2021/09/24 12:04:58;;;;;;;10.10;7.43;;;;;;;;;;5066107;28;20281;-73
2021/09/24 12:07:25;;;;;;;9.67;7.17;;;;;;;;;;5065807;28;20206;-72
2021/09/24 12:09:56;;;;;;;13.70;6.50;;;;;;;;;;5066038;28;21289;-73
2021/09/24 12:12:23;;;;;;;18.27;7.97;;;;;;;;;;5065466;28;20230;-73
2021/09/24 12:14:54;;;;;;;25.77;8.80;;;;;;;;;;5065569;28;20243;-73
2021/09/24 12:17:23;;;;;;;16.60;6.50;;;;;;;;;;5065714;28;20345;-72
2021/09/24 12:19:49;;;;;;;7.87;5.47;;;;;;;;;;5065705;28;20211;-73
2021/09/24 12:22:17;;;;;;;11.27;6.50;;;;;;;;;;5066046;28;20705;-72
2021/09/24 12:24:46;;;;;;;10.23;5.53;;;;;;;;;;5064863;28;20214;-72
2021/09/24 12:27:15;;;;;;;17.53;6.70;;;;;;;;;;5065867;28;20207;-73
2021/09/24 12:29:43;;;;;;;8.30;5.23;;;;;;;;;;5065652;28;20316;-73
2021/09/24 12:32:11;;;;;;;7.77;5.60;;;;;;;;;;5065835;28;20287;-74
2021/09/24 12:34:44;;;;;;;9.93;5.60;;;;;;;;;;5065538;28;20325;-74
2021/09/24 12:37:11;;;;;;;7.33;5.17;;;;;;;;;;5065167;28;20218;-74
2021/09/24 12:39:41;;;;;;;9.23;5.50;;;;;;;;;;5067575;28;20558;-73
2021/09/24 12:42:09;;;;;;;8.40;5.60;;;;;;;;;;5069539;28;20222;-72
2021/09/24 12:44:49;;;;;;;8.20;5.80;;;;;;;;;;5069011;28;20210;-73
2021/09/24 12:47:21;;;;;;;10.37;5.90;;;;;;;;;;5068893;28;20233;-73
2021/09/24 12:49:47;;;;;;;10.57;6.80;;;;;;;;;;5068999;28;20209;-73
2021/09/24 12:52:14;;;;;;;6.97;6.23;;;;;;;;;;5068827;28;20262;-73
2021/09/24 12:54:42;;;;;;;7.70;6.30;;;;;;;;;;5068241;28;20253;-73
2021/09/24 12:57:13;;;;;;;9.13;5.97;;;;;;;;;;5068929;28;20234;-74
2021/09/24 12:59:40;;;;;;;7.20;5.53;;;;;;;;;;5068792;28;20300;-73
2021/09/24 13:02:06;;;;;;;13.30;5.90;;;;;;;;;;5068968;28;20233;-74
2021/09/24 13:04:34;;;;;;;7.17;4.80;;;;;;;;;;5068866;28;20221;-73
2021/09/24 13:07:02;;;;;;;10.03;5.93;;;;;;;;;;5068344;28;20206;-73
2021/09/24 13:09:29;;;;;;;11.40;5.00;;;;;;;;;;5068407;28;20201;-73
2021/09/24 13:11:57;;;;;;;14.13;5.40;;;;;;;;;;5068514;28;20220;-73
2021/09/24 13:14:24;;;;;;;11.00;5.50;;;;;;;;;;5068192;28;20329;-73
2021/09/24 13:16:51;;;;;;;9.97;4.60;;;;;;;;;;5068134;28;20771;-73
2021/09/24 13:19:17;;;;;;;7.77;4.10;;;;;;;;;;5068617;28;20612;-72
2021/09/24 13:21:44;;;;;;;9.03;3.67;;;;;;;;;;5068139;28;20694;-73
2021/09/24 13:24:10;;;;;;;8.10;3.60;;;;;;;;;;5069041;28;20221;-73
2021/09/24 13:26:37;;;;;;;4.17;3.63;;;;;;;;;;5067279;28;21005;-73
2021/09/24 13:29:05;;;;;;;5.93;3.77;;;;;;;;;;5067454;28;20214;-73
2021/09/24 13:31:32;;;;;;;6.70;2.97;;;;;;;;;;5066950;28;20675;-73
2021/09/24 13:33:58;;;;;;;10.17;3.47;;;;;;;;;;5066804;28;20237;-73
2021/09/24 13:36:25;;;;;;;7.47;3.03;;;;;;;;;;5066692;28;20209;-73
2021/09/24 13:38:52;;;;;;;5.10;3.00;;;;;;;;;;5066438;28;20287;-74
2021/09/24 13:41:18;;;;;;;6.63;2.70;;;;;;;;;;5067221;28;20213;-73
2021/09/24 13:43:45;;;;;;;6.30;2.50;;;;;;;;;;5067363;28;20217;-73
2021/09/24 13:46:12;;;;;;;4.73;2.40;;;;;;;;;;5067145;28;20225;-73
2021/09/24 13:48:39;;;;;;;3.50;2.57;;;;;;;;;;5066785;28;20654;-74
2021/09/24 13:51:08;;;;;;;8.33;2.70;;;;;;;;;;5067612;28;20762;-73
2021/09/24 13:53:35;;;;;;;4.03;2.77;;;;;;;;;;5066323;28;20249;-73
2021/09/24 13:56:01;;;;;;;5.93;2.90;;;;;;;;;;5067011;28;20217;-73
2021/09/24 13:58:28;;;;;;;5.37;2.90;;;;;;;;;;5066393;28;20226;-73
2021/09/24 14:00:54;;;;;;;5.80;3.13;;;;;;;;;;5067147;28;20682;-74
2021/09/24 14:03:22;;;;;;;8.33;2.50;;;;;;;;;;5066665;28;20229;-73
2021/09/24 14:05:48;;;;;;;5.67;2.53;;;;;;;;;;5066302;28;20271;-73
2021/09/24 14:08:15;;;;;;;6.23;2.70;;;;;;;;;;5065788;28;20663;-73
2021/09/24 14:10:42;;;;;;;6.83;2.83;;;;;;;;;;5068225;28;20304;-74
2021/09/24 14:13:08;;;;;;;4.37;2.47;;;;;;;;;;5066347;28;20221;-73
2021/09/24 14:15:35;;;;;;;7.73;2.60;;;;;;;;;;5065667;28;20233;-73
2021/09/24 14:18:02;;;;;;;12.83;2.73;;;;;;;;;;5066238;28;20244;-74
2021/09/24 14:20:30;;;;;;;3.50;2.27;;;;;;;;;;5066023;28;20213;-74
2021/09/24 14:22:56;;;;;;;5.57;2.37;;;;;;;;;;5065793;28;20282;-74
2021/09/24 14:25:23;;;;;;;4.77;2.50;;;;;;;;;;5066101;28;21025;-74
2021/09/24 14:27:50;;;;;;;6.37;2.37;;;;;;;;;;5066389;28;20217;-73
2021/09/24 14:30:18;;;;;;;5.33;2.27;;;;;;;;;;5066501;28;20577;-73
2021/09/24 14:32:45;;;;;;;10.43;2.20;;;;;;;;;;5065323;28;20230;-73
2021/09/24 14:35:13;;;;;;;4.07;2.03;;;;;;;;;;5065507;28;20238;-74
2021/09/24 14:37:43;;;;;;;5.93;2.00;;;;;;;;;;5065498;28;20259;-73
2021/09/24 14:40:10;;;;;;;5.17;2.30;;;;;;;;;;5065953;28;20809;-73
2021/09/24 14:42:37;;;;;;;6.43;1.90;;;;;;;;;;5065609;28;20226;-74
2021/09/24 14:45:04;;;;;;;5.90;1.57;;;;;;;;;;5066072;28;20217;-74
2021/09/24 14:47:30;;;;;;;4.90;2.20;;;;;;;;;;5067349;28;20236;-75
2021/09/24 14:49:57;;;;;;;4.47;1.87;;;;;;;;;;5064959;28;20364;-74
2021/09/24 14:52:23;;;;;;;6.00;2.00;;;;;;;;;;5065685;28;20217;-74
2021/09/24 14:54:51;;;;;;;3.07;2.10;;;;;;;;;;5065403;28;20876;-75
2021/09/24 14:57:18;;;;;;;7.23;2.33;;;;;;;;;;5065218;28;20639;-74
2021/09/24 14:59:44;;;;;;;4.47;2.00;;;;;;;;;;5065183;28;20214;-74
2021/09/24 15:02:11;;;;;;;5.07;2.07;;;;;;;;;;5064969;28;20229;-75
2021/09/24 15:04:38;;;;;;;6.83;2.37;;;;;;;;;;5064817;28;20221;-74
2021/09/24 15:07:04;;;;;;;6.10;2.13;;;;;;;;;;5065320;28;20224;-74
2021/09/24 15:09:31;;;;;;;6.43;2.33;;;;;;;;;;5064924;28;20304;-73
2021/09/24 15:11:59;;;;;;;6.33;1.87;;;;;;;;;;5065131;28;20286;-75
2021/09/24 15:14:28;;;;;;;4.53;2.10;;;;;;;;;;5064978;28;20237;-74
2021/09/24 15:16:54;;;;;;;4.77;2.33;;;;;;;;;;5064948;28;20240;-74